Time;durP1;ratioP1;P1;durP2;ratioP2;P2;SDS_P1;SDS_P2;PMS_P1;PMS_P2;Temp;Humidity;BMP_temperature;BMP_pressure;BME280_temperature;BME280_humidity;BME280_pressure;Samples;Min_cycle;Max_cycle;Signal;HPM_P1;HPM_P2
2021/07/14 00:00:07;;;;;;;9.38;8.28;;;;;;;25.51;65.73;99822.62;1644331;86;21040;-74
2021/07/14 00:02:33;;;;;;;10.63;9.25;;;;;;;25.56;65.71;99827.12;1650088;87;21149;-74
2021/07/14 00:05:09;;;;;;;11.00;9.43;;;;;;;25.45;66.12;99819.86;1641704;87;21009;-76
2021/07/14 00:07:35;;;;;;;10.03;8.93;;;;;;;25.39;66.24;99828.12;1611842;85;21091;-75
2021/07/14 00:10:09;;;;;;;10.82;9.73;;;;;;;25.39;66.09;99823.98;1570159;89;21504;-76
2021/07/14 00:12:44;;;;;;;9.78;8.85;;;;;;;25.34;66.42;99818.71;1599054;87;21055;-80
2021/07/14 00:17:12;;;;;;;12.68;10.10;;;;;;;25.31;66.95;99824.91;1603755;87;21579;-75
2021/07/14 00:23:03;;;;;;;11.10;9.53;;;;;;;25.37;66.85;99822.73;1640521;87;21024;-74
2021/07/14 00:25:31;;;;;;;10.68;8.60;;;;;;;25.38;66.71;99821.00;1650148;87;20966;-76
2021/07/14 00:27:57;;;;;;;13.30;9.05;;;;;;;25.40;66.60;99824.22;1642310;87;21088;-76
2021/07/14 00:30:25;;;;;;;10.68;9.50;;;;;;;25.41;66.42;99822.27;1623991;87;21568;-77
2021/07/14 00:32:52;;;;;;;10.60;9.43;;;;;;;25.41;66.43;99812.06;1604524;87;20953;-74
2021/07/14 00:35:18;;;;;;;14.15;9.50;;;;;;;25.43;66.32;99821.34;1651009;87;21076;-74
2021/07/14 00:37:45;;;;;;;11.75;9.30;;;;;;;25.43;66.17;99816.63;1650653;86;21041;-73
2021/07/14 00:40:12;;;;;;;9.85;8.95;;;;;;;25.45;66.03;99822.61;1648372;87;21166;-72
2021/07/14 00:42:38;;;;;;;10.35;9.38;;;;;;;25.46;65.99;99826.98;1638211;87;21067;-71
2021/07/14 00:45:07;;;;;;;11.25;10.10;;;;;;;25.47;65.93;99822.25;1613979;88;21153;-75
2021/07/14 00:47:34;;;;;;;10.98;9.30;;;;;;;25.38;66.02;99822.95;1598452;88;21012;-75
2021/07/14 00:50:01;;;;;;;10.68;9.68;;;;;;;25.24;66.62;99822.48;1627099;87;20990;-76
2021/07/14 00:52:28;;;;;;;11.70;10.58;;;;;;;25.12;66.83;99832.94;1596346;88;21071;-76
2021/07/14 00:54:54;;;;;;;9.73;8.83;;;;;;;25.08;66.81;99823.16;1596487;88;21074;-74
2021/07/14 00:57:25;;;;;;;13.48;10.45;;;;;;;25.06;66.85;99823.30;1624110;87;21051;-76
2021/07/14 00:59:49;;;;;;;10.85;9.55;;;;;;;25.07;67.07;99822.16;1638937;87;21529;-76
2021/07/14 01:02:16;;;;;;;12.28;9.20;;;;;;;25.08;66.93;99828.67;1595851;88;21068;-76
2021/07/14 01:04:51;;;;;;;15.40;9.93;;;;;;;25.09;66.92;99820.65;1624239;88;21122;-76
2021/07/14 01:07:32;;;;;;;11.05;9.73;;;;;;;25.09;66.80;99823.41;1640191;87;20989;-77
2021/07/14 01:10:09;;;;;;;15.65;11.48;;;;;;;25.06;67.13;99828.23;1650769;87;21033;-77
2021/07/14 01:13:03;;;;;;;13.70;11.33;;;;;;;24.96;68.09;99828.67;1622483;87;21063;-77
2021/07/14 01:15:40;;;;;;;13.65;12.23;;;;;;;24.75;69.15;99827.91;1614997;87;21170;-76
2021/07/14 01:18:21;;;;;;;31.20;13.78;;;;;;;24.46;70.03;99822.58;1596875;88;21005;-76
2021/07/14 01:20:58;;;;;;;35.05;14.05;;;;;;;24.19;72.08;99824.75;1618178;88;21052;-76
2021/07/14 01:23:50;;;;;;;33.92;15.45;;;;;;;23.99;73.29;99827.48;1592230;89;21019;-77
2021/07/14 01:26:55;;;;;;;33.67;14.93;;;;;;;23.80;74.06;99823.83;1575631;87;21096;-77
2021/07/14 01:29:21;;;;;;;21.82;13.50;;;;;;;23.57;75.26;99823.34;1603694;86;21089;-77
2021/07/14 01:31:50;;;;;;;23.32;13.62;;;;;;;23.44;75.98;99823.84;1660103;86;21147;-76
2021/07/14 01:34:16;;;;;;;31.90;16.27;;;;;;;23.38;76.17;99822.94;1634917;86;21590;-77
2021/07/14 01:36:45;;;;;;;18.67;13.48;;;;;;;23.30;76.62;99817.75;1634993;87;21038;-76
2021/07/14 01:39:12;;;;;;;17.75;12.98;;;;;;;23.21;77.17;99823.85;1635006;86;21613;-75
2021/07/14 01:41:41;;;;;;;21.93;14.93;;;;;;;23.16;77.64;99824.60;1643738;86;21058;-76
2021/07/14 01:44:07;;;;;;;24.45;14.80;;;;;;;23.15;77.96;99828.47;1634805;85;21848;-75
2021/07/14 01:46:35;;;;;;;20.27;15.43;;;;;;;23.16;77.46;99824.03;1608711;89;20970;-75
2021/07/14 01:49:12;;;;;;;19.40;15.58;;;;;;;23.17;77.48;99821.50;1620182;86;21006;-76
2021/07/14 01:51:55;;;;;;;21.37;16.42;;;;;;;23.15;77.90;99817.49;1662143;86;21049;-75
2021/07/14 01:54:23;;;;;;;;;;;;;;;23.12;78.24;99828.55;1665000;85;21046;-76
2021/07/14 01:56:49;;;;;;;21.68;14.55;;;;;;;23.07;78.30;99830.10;1663268;85;20991;-77
2021/07/14 01:59:16;;;;;;;22.20;13.45;;;;;;;23.08;78.01;99830.34;1643798;86;20961;-75
2021/07/14 02:01:43;;;;;;;21.48;14.30;;;;;;;23.10;78.11;99832.20;1655751;86;21041;-76
2021/07/14 02:04:31;;;;;;;16.73;14.35;;;;;;;23.14;78.02;99833.16;1586014;88;21060;-76
2021/07/14 02:07:07;;;;;;;20.75;15.48;;;;;;;23.21;77.78;99836.20;1621180;86;21152;-76
2021/07/14 02:09:36;;;;;;;18.27;15.70;;;;;;;23.28;77.28;99832.36;1661297;85;21191;-76
2021/07/14 02:12:07;;;;;;;15.65;13.93;;;;;;;23.37;76.87;99839.17;1617891;86;20949;-75
2021/07/14 02:14:42;;;;;;;18.27;15.65;;;;;;;23.42;76.52;99840.35;1634895;87;21146;-76
2021/07/14 02:17:19;;;;;;;17.25;15.45;;;;;;;23.44;76.33;99840.31;1583749;89;21060;-76
2021/07/14 02:20:01;;;;;;;25.72;15.03;;;;;;;23.46;76.15;99838.58;1627927;86;21549;-76
2021/07/14 02:22:28;;;;;;;22.80;17.15;;;;;;;23.44;76.13;99833.98;1582874;90;21571;-76
2021/07/14 02:24:54;;;;;;;23.95;18.77;;;;;;;23.39;76.31;99835.54;1615816;87;21566;-76
2021/07/14 02:27:22;;;;;;;24.15;16.80;;;;;;;23.34;76.59;99839.27;1635003;87;21530;-75
2021/07/14 02:29:49;;;;;;;29.10;19.80;;;;;;;23.32;76.80;99840.16;1650590;85;21016;-75
2021/07/14 02:32:18;;;;;;;33.95;18.75;;;;;;;23.31;76.96;99843.26;1673377;85;20964;-76
2021/07/14 02:34:48;;;;;;;31.90;18.00;;;;;;;23.32;77.07;99842.91;1676967;85;21513;-76
2021/07/14 02:37:32;;;;;;;25.00;18.92;;;;;;;23.37;76.92;99849.58;1624824;85;21052;-75
2021/07/14 02:39:59;;;;;;;35.15;22.58;;;;;;;23.38;76.93;99851.77;1628558;85;21647;-75
2021/07/14 02:42:31;;;;;;;34.92;21.93;;;;;;;23.20;77.83;99859.28;1636715;86;37969;-71
2021/07/14 02:45:04;;;;;;;29.48;23.18;;;;;;;22.98;79.30;99865.00;1655440;85;21080;-70
2021/07/14 02:47:38;;;;;;;34.13;22.02;;;;;;;22.86;80.20;99862.95;1626598;86;21803;-72
2021/07/14 02:50:08;;;;;;;36.90;23.92;;;;;;;22.75;81.42;99864.98;1651693;86;21012;-73
2021/07/14 02:52:35;;;;;;;35.90;24.10;;;;;;;22.68;82.11;99870.95;1666537;85;21067;-73
2021/07/14 02:55:01;;;;;;;47.35;23.83;;;;;;;22.59;83.14;99863.28;1659003;85;21025;-72
2021/07/14 02:57:27;;;;;;;33.73;21.30;;;;;;;22.53;83.82;99868.72;1679643;85;21061;-73
2021/07/14 02:59:55;;;;;;;41.68;21.45;;;;;;;22.52;84.36;99861.62;1678184;85;21170;-72
2021/07/14 03:02:22;;;;;;;40.58;22.50;;;;;;;22.50;84.70;99867.41;1656990;85;21044;-72
2021/07/14 03:04:51;;;;;;;37.58;22.32;;;;;;;22.58;84.39;99871.30;1663851;85;20944;-74
2021/07/14 03:07:25;;;;;;;39.10;23.35;;;;;;;22.64;84.38;99867.82;1652099;86;21056;-72
2021/07/14 03:09:51;;;;;;;37.95;21.68;;;;;;;22.67;83.97;99875.39;1651110;86;21052;-73
2021/07/14 03:12:20;;;;;;;39.08;21.45;;;;;;;22.68;83.98;99868.78;1653271;85;21284;-73
2021/07/14 03:14:50;;;;;;;36.15;21.60;;;;;;;22.74;83.47;99871.59;1679363;85;21537;-72
2021/07/14 03:17:17;;;;;;;29.92;19.25;;;;;;;22.79;82.91;99868.12;1679367;85;21525;-72
2021/07/14 03:19:45;;;;;;;41.30;22.30;;;;;;;22.87;82.79;99871.99;1623205;86;21039;-73
2021/07/14 03:22:11;;;;;;;42.03;22.87;;;;;;;22.95;82.52;99874.70;1631808;85;21115;-72
2021/07/14 03:24:40;;;;;;;48.08;23.98;;;;;;;22.99;82.38;99870.73;1651654;85;21158;-74
2021/07/14 03:27:08;;;;;;;42.20;22.95;;;;;;;22.97;82.71;99868.90;1625547;86;21058;-72
2021/07/14 03:29:35;;;;;;;49.42;22.40;;;;;;;22.98;82.54;99870.48;1628612;86;21047;-72
2021/07/14 03:32:03;;;;;;;37.85;21.80;;;;;;;23.03;82.26;99877.17;1667558;85;21064;-73
2021/07/14 03:34:31;;;;;;;31.87;18.65;;;;;;;23.08;81.80;99875.62;1646199;85;21620;-73
2021/07/14 03:36:57;;;;;;;30.05;16.62;;;;;;;23.13;81.37;99876.00;1599340;88;21071;-73
2021/07/14 03:39:24;;;;;;;31.42;20.02;;;;;;;23.23;81.00;99876.45;1653174;85;21008;-73
2021/07/14 03:41:50;;;;;;;36.08;22.70;;;;;;;23.32;80.59;99872.30;1621128;85;21004;-73
2021/07/14 03:44:17;;;;;;;48.17;22.13;;;;;;;23.40;80.26;99875.59;1664926;85;21557;-73
2021/07/14 03:46:45;;;;;;;31.12;19.30;;;;;;;23.42;80.36;99873.30;1652247;85;21512;-73
2021/07/14 03:49:13;;;;;;;43.15;17.50;;;;;;;23.45;80.06;99876.21;1625206;86;21533;-74
2021/07/14 03:51:42;;;;;;;48.13;19.40;;;;;;;23.51;79.67;99874.66;1647271;86;21028;-74
2021/07/14 03:54:11;;;;;;;30.30;17.10;;;;;;;23.57;79.59;99877.45;1668967;85;21120;-72
2021/07/14 03:56:38;;;;;;;38.10;21.00;;;;;;;23.64;79.46;99875.01;1679641;85;21048;-71
2021/07/14 03:59:05;;;;;;;28.55;20.75;;;;;;;23.70;79.19;99884.08;1629859;85;21428;-72
2021/07/14 04:01:31;;;;;;;37.23;20.62;;;;;;;23.75;78.73;99877.58;1641736;85;21126;-72
2021/07/14 04:03:57;;;;;;;28.12;21.07;;;;;;;23.75;78.60;99873.46;1663409;85;20960;-73
2021/07/14 04:06:24;;;;;;;29.23;20.77;;;;;;;23.81;78.38;99874.89;1652119;85;21053;-73
2021/07/14 04:09:19;;;;;;;22.65;17.90;;;;;;;23.87;77.88;99876.31;1651910;85;21065;-75
2021/07/14 04:11:52;;;;;;;21.05;17.50;;;;;;;23.94;77.57;99883.44;1679430;85;20995;-74
2021/07/14 04:14:18;;;;;;;21.10;18.82;;;;;;;24.03;77.05;99875.94;1634346;86;21006;-73
2021/07/14 04:16:45;;;;;;;24.55;18.12;;;;;;;24.09;76.23;99881.47;1652048;86;20984;-73
2021/07/14 04:19:12;;;;;;;17.82;15.28;;;;;;;24.08;75.89;99883.98;1651870;86;21032;-72
2021/07/14 04:21:38;;;;;;;17.10;14.75;;;;;;;24.10;75.67;99879.53;1662075;85;21104;-74
2021/07/14 04:24:05;;;;;;;17.75;14.65;;;;;;;24.15;75.58;99884.27;1660694;85;21096;-74
2021/07/14 04:26:33;;;;;;;15.20;13.70;;;;;;;24.16;75.46;99879.04;1652160;86;21122;-74
2021/07/14 04:29:03;;;;;;;15.00;13.53;;;;;;;24.19;75.53;99885.23;1652049;86;21005;-73
2021/07/14 04:31:33;;;;;;;19.67;15.60;;;;;;;24.25;75.38;99887.21;1651752;86;21084;-73
2021/07/14 04:34:01;;;;;;;16.90;15.28;;;;;;;24.28;75.35;99889.27;1637828;85;21544;-73
2021/07/14 04:36:27;;;;;;;16.52;14.87;;;;;;;24.31;75.04;99886.68;1651933;85;21085;-74
2021/07/14 04:38:56;;;;;;;19.37;14.93;;;;;;;24.37;75.34;99887.25;1679461;85;21005;-72
2021/07/14 04:41:23;;;;;;;14.95;13.25;;;;;;;24.43;74.94;99889.23;1669680;85;21004;-73
2021/07/14 04:43:49;;;;;;;16.73;13.78;;;;;;;24.45;75.01;99896.02;1630444;86;20988;-74
2021/07/14 04:46:15;;;;;;;14.13;11.78;;;;;;;24.49;75.21;99896.14;1652304;85;20980;-74
2021/07/14 04:48:41;;;;;;;17.05;14.03;;;;;;;24.54;75.20;99894.00;1651810;86;21055;-74
2021/07/14 04:51:10;;;;;;;18.20;14.80;;;;;;;24.58;75.21;99896.86;1652004;86;21007;-74
2021/07/14 04:53:36;;;;;;;21.87;16.10;;;;;;;24.61;74.61;99897.55;1653495;85;21083;-75
2021/07/14 04:56:03;;;;;;;17.12;14.40;;;;;;;24.61;74.63;99892.86;1654729;85;21075;-74
2021/07/14 04:58:30;;;;;;;19.37;13.20;;;;;;;24.69;74.20;99896.69;1651705;85;21096;-74
2021/07/14 05:00:57;;;;;;;17.42;13.03;;;;;;;24.76;74.08;99892.23;1655584;85;21068;-74
2021/07/14 05:03:24;;;;;;;13.90;12.53;;;;;;;24.85;74.05;99896.83;1642142;85;21529;-75
2021/07/14 05:05:52;;;;;;;15.35;13.15;;;;;;;24.94;73.46;99897.00;1599533;88;21556;-74
2021/07/14 05:08:18;;;;;;;16.20;14.20;;;;;;;24.95;72.96;99897.23;1625349;88;21133;-75
2021/07/14 05:10:48;;;;;;;18.20;16.42;;;;;;;24.98;73.00;99897.15;1625611;88;21946;-72
2021/07/14 05:13:17;;;;;;;15.28;13.90;;;;;;;25.00;73.16;99903.91;1606234;85;21087;-75
2021/07/14 05:15:44;;;;;;;20.17;15.10;;;;;;;25.04;72.93;99897.95;1653240;85;21862;-75
2021/07/14 05:18:12;;;;;;;16.10;14.43;;;;;;;25.06;72.75;99899.80;1679785;85;22191;-75
2021/07/14 05:20:42;;;;;;;16.07;14.30;;;;;;;25.11;72.74;99902.33;1662522;85;21145;-74
2021/07/14 05:23:09;;;;;;;16.93;15.23;;;;;;;25.18;72.67;99905.88;1654376;85;21119;-74
2021/07/14 05:25:35;;;;;;;21.15;16.73;;;;;;;25.26;72.64;99898.68;1674917;85;21056;-74
2021/07/14 05:28:03;;;;;;;17.82;15.93;;;;;;;25.33;72.32;99900.28;1630091;85;21263;-73
2021/07/14 05:30:30;;;;;;;17.57;15.25;;;;;;;25.44;72.33;99895.94;1675142;85;21569;-73
2021/07/14 05:32:57;;;;;;;16.55;14.33;;;;;;;25.54;71.72;99910.09;1652692;85;21553;-74
2021/07/14 05:35:23;;;;;;;19.50;14.45;;;;;;;25.58;71.23;99909.63;1635544;85;21112;-74
2021/07/14 05:37:51;;;;;;;28.60;15.43;;;;;;;25.64;71.14;99911.58;1634997;87;21125;-74
2021/07/14 05:40:17;;;;;;;18.07;15.80;;;;;;;25.72;70.85;99908.47;1615832;87;21013;-75
2021/07/14 05:42:43;;;;;;;18.23;14.07;;;;;;;25.78;70.12;99901.02;1634958;87;21092;-74
2021/07/14 05:45:10;;;;;;;17.70;15.60;;;;;;;25.82;69.79;99912.14;1658786;86;21018;-75
2021/07/14 05:47:36;;;;;;;19.00;14.60;;;;;;;25.85;69.86;99900.44;1661963;85;21010;-74
2021/07/14 05:50:05;;;;;;;17.98;13.13;;;;;;;25.92;69.23;99908.91;1661773;86;21041;-74
2021/07/14 05:52:32;;;;;;;15.93;12.70;;;;;;;26.00;68.89;99916.24;1635564;87;21236;-74
2021/07/14 05:54:59;;;;;;;17.70;13.25;;;;;;;26.06;68.63;99910.73;1647244;86;20934;-74
2021/07/14 05:57:25;;;;;;;17.48;14.58;;;;;;;26.16;68.59;99906.11;1617577;86;21101;-74
2021/07/14 05:59:51;;;;;;;22.58;14.25;;;;;;;26.23;68.16;99898.09;1661623;86;21008;-74
2021/07/14 06:02:18;;;;;;;15.68;14.00;;;;;;;26.27;68.10;99903.71;1661762;85;21077;-74
2021/07/14 06:04:44;;;;;;;18.57;13.50;;;;;;;26.29;67.74;99905.52;1661046;86;22111;-75
2021/07/14 06:07:11;;;;;;;18.80;12.73;;;;;;;26.35;67.34;99906.89;1661857;85;21037;-73
2021/07/14 06:09:39;;;;;;;16.67;14.68;;;;;;;26.36;66.89;99900.23;1662054;86;21009;-73
2021/07/14 06:12:08;;;;;;;17.85;14.05;;;;;;;26.42;66.89;99904.36;1642548;86;21018;-72
2021/07/14 06:14:34;;;;;;;15.35;13.83;;;;;;;26.48;66.63;99906.50;1661544;86;21081;-74
2021/07/14 06:17:01;;;;;;;19.12;13.28;;;;;;;26.56;66.16;99901.20;1656744;85;21236;-73
2021/07/14 06:19:28;;;;;;;18.65;14.23;;;;;;;26.64;65.76;99903.80;1616197;87;21510;-73
2021/07/14 06:21:56;;;;;;;18.20;12.10;;;;;;;26.75;65.89;99900.77;1634852;87;21121;-73
2021/07/14 06:24:24;;;;;;;14.98;13.43;;;;;;;26.82;65.76;99905.66;1654698;86;20997;-74
2021/07/14 06:26:55;;;;;;;17.65;14.30;;;;;;;26.86;65.62;99901.87;1629507;87;21048;-73
2021/07/14 06:29:19;;;;;;;22.42;14.78;;;;;;;26.93;65.42;99907.36;1660780;86;20958;-73
2021/07/14 06:31:46;;;;;;;19.15;15.65;;;;;;;27.00;64.97;99895.95;1673162;85;20945;-73
2021/07/14 06:34:13;;;;;;;21.05;14.30;;;;;;;27.11;64.78;99899.77;1661905;85;21174;-73
2021/07/14 06:36:39;;;;;;;24.18;17.90;;;;;;;27.18;64.44;99897.20;1652546;85;21000;-74
2021/07/14 06:39:06;;;;;;;22.93;14.87;;;;;;;27.25;64.37;99897.95;1679434;85;21059;-74
2021/07/14 06:41:33;;;;;;;20.55;14.83;;;;;;;27.30;64.30;99894.92;1679320;85;21977;-73
2021/07/14 06:44:01;;;;;;;22.45;16.02;;;;;;;27.34;64.25;99898.56;1679158;85;21565;-73
2021/07/14 06:46:28;;;;;;;21.35;15.83;;;;;;;27.42;63.97;99900.37;1679587;85;21070;-73
2021/07/14 06:48:54;;;;;;;17.62;15.83;;;;;;;27.51;63.67;99901.02;1671697;85;21065;-73
2021/07/14 06:51:22;;;;;;;21.62;15.25;;;;;;;27.62;63.25;99907.61;1651903;86;21524;-75
2021/07/14 06:53:49;;;;;;;14.73;12.05;;;;;;;27.77;62.44;99914.25;1631305;86;22272;-74
2021/07/14 06:56:15;;;;;;;22.17;12.00;;;;;;;27.84;61.57;99906.14;1626811;86;21077;-74
2021/07/14 06:58:42;;;;;;;11.68;10.58;;;;;;;27.86;61.49;99907.17;1653687;85;21023;-75
2021/07/14 07:01:08;;;;;;;16.35;12.05;;;;;;;27.93;59.76;99903.97;1626622;86;21132;-74
2021/07/14 07:03:36;;;;;;;13.55;10.98;;;;;;;28.05;58.90;99905.25;1653567;85;21115;-74
2021/07/14 07:06:04;;;;;;;16.60;11.65;;;;;;;28.20;59.25;99902.83;1652236;85;21066;-74
2021/07/14 07:08:32;;;;;;;13.53;11.70;;;;;;;28.30;58.82;99907.78;1679475;85;21072;-73
2021/07/14 07:11:01;;;;;;;21.33;17.10;;;;;;;28.37;58.12;99908.72;1679390;85;20981;-74
2021/07/14 07:13:28;;;;;;;14.85;12.95;;;;;;;28.39;58.02;99907.79;1679441;85;21538;-73
2021/07/14 07:15:55;;;;;;;16.23;14.65;;;;;;;28.41;57.87;99908.79;1652433;85;21084;-74
2021/07/14 07:18:21;;;;;;;15.35;11.63;;;;;;;28.46;57.51;99901.58;1645704;85;22262;-74
2021/07/14 07:20:49;;;;;;;13.88;12.50;;;;;;;28.53;56.89;99901.74;1679654;85;21092;-76
2021/07/14 07:23:16;;;;;;;13.43;12.13;;;;;;;28.58;56.94;99895.30;1651772;85;21554;-74
2021/07/14 07:25:43;;;;;;;14.87;11.15;;;;;;;28.59;56.99;99889.99;1655209;85;21540;-75
2021/07/14 07:28:18;;;;;;;12.63;11.55;;;;;;;28.61;56.81;99890.44;1651968;86;21009;-75
2021/07/14 07:30:44;;;;;;;11.40;10.38;;;;;;;28.63;55.87;99890.86;1652036;86;21737;-75
2021/07/14 07:33:11;;;;;;;12.90;11.70;;;;;;;28.70;55.73;99893.55;1625220;86;20988;-76
2021/07/14 07:35:38;;;;;;;12.65;11.43;;;;;;;28.72;56.01;99888.50;1652475;85;21081;-75
2021/07/14 07:38:05;;;;;;;21.12;11.45;;;;;;;28.84;55.77;99884.97;1625138;85;20960;-75
2021/07/14 07:40:31;;;;;;;11.43;10.23;;;;;;;29.03;54.61;99892.42;1676515;85;21018;-75
2021/07/14 07:42:57;;;;;;;15.70;11.70;;;;;;;29.14;53.42;99895.39;1679963;85;21030;-74
2021/07/14 07:45:24;;;;;;;9.85;8.93;;;;;;;29.16;53.31;99892.45;1635456;86;21137;-74
2021/07/14 07:47:50;;;;;;;9.88;8.88;;;;;;;29.20;52.81;99889.19;1669652;85;21617;-76
2021/07/14 07:50:17;;;;;;;15.40;10.05;;;;;;;29.26;51.20;99884.91;1681903;85;22196;-76
2021/07/14 07:52:43;;;;;;;9.25;8.33;;;;;;;29.27;51.41;99885.72;1679971;85;21057;-76
2021/07/14 07:55:14;;;;;;;10.20;9.20;;;;;;;29.29;51.37;99887.55;1679705;85;21540;-74
2021/07/14 07:57:42;;;;;;;10.55;9.55;;;;;;;29.33;51.41;99882.31;1651940;85;21502;-77
2021/07/14 08:00:19;;;;;;;10.70;9.70;;;;;;;29.40;51.56;99876.09;1652168;85;21596;-76
2021/07/14 08:02:45;;;;;;;11.33;10.13;;;;;;;29.46;51.70;99880.13;1676970;85;21008;-74
2021/07/14 08:05:12;;;;;;;12.47;9.25;;;;;;;29.54;51.28;99874.93;1662059;85;21056;-76
2021/07/14 08:07:40;;;;;;;10.82;9.90;;;;;;;29.61;50.60;99872.83;1625552;86;20930;-74
2021/07/14 08:10:07;;;;;;;9.05;8.25;;;;;;;29.61;49.83;99878.37;1625569;88;21003;-76
2021/07/14 08:12:34;;;;;;;9.15;8.00;;;;;;;29.63;48.19;99875.47;1625509;88;21096;-74
2021/07/14 08:15:04;;;;;;;8.85;8.00;;;;;;;29.64;48.07;99871.50;1639375;85;21169;-75
2021/07/14 08:17:30;;;;;;;10.25;9.45;;;;;;;29.67;48.31;99868.58;1625106;86;21020;-76
2021/07/14 08:19:58;;;;;;;12.13;10.60;;;;;;;29.74;49.32;99870.05;1651789;86;20984;-76
2021/07/14 08:22:26;;;;;;;14.87;8.90;;;;;;;29.85;49.50;99866.86;1651815;86;21004;-74
2021/07/14 08:24:53;;;;;;;9.60;8.45;;;;;;;29.95;49.00;99866.24;1662802;85;20952;-76
2021/07/14 08:27:20;;;;;;;8.95;8.08;;;;;;;30.14;48.82;99870.27;1679527;85;21024;-75
2021/07/14 08:29:46;;;;;;;8.98;8.00;;;;;;;30.20;45.64;99865.19;1679418;85;21116;-75
2021/07/14 08:32:13;;;;;;;10.10;7.08;;;;;;;30.16;45.85;99871.28;1645663;86;21502;-76
2021/07/14 08:34:40;;;;;;;12.95;8.20;;;;;;;30.14;45.73;99875.81;1653437;85;21827;-75
2021/07/14 08:37:08;;;;;;;6.92;6.40;;;;;;;30.13;46.24;99877.56;1635047;87;21592;-74
2021/07/14 08:39:36;;;;;;;8.53;7.78;;;;;;;30.16;45.81;99874.86;1635165;87;21088;-76
2021/07/14 08:42:02;;;;;;;8.25;7.30;;;;;;;30.20;45.83;99865.99;1635112;87;21100;-73
2021/07/14 08:44:29;;;;;;;10.85;9.13;;;;;;;30.31;46.03;99866.91;1640916;86;21101;-75
2021/07/14 08:46:55;;;;;;;13.50;8.18;;;;;;;30.43;45.63;99870.62;1645226;86;20985;-75
2021/07/14 08:49:21;;;;;;;8.95;8.15;;;;;;;30.49;45.36;99874.69;1635073;87;21021;-75
2021/07/14 08:51:47;;;;;;;14.45;8.33;;;;;;;30.53;44.29;99867.20;1637095;86;21060;-74
2021/07/14 08:54:14;;;;;;;10.63;8.15;;;;;;;30.54;44.56;99872.38;1636911;86;21060;-77
2021/07/14 08:56:41;;;;;;;9.33;8.45;;;;;;;30.60;44.34;99874.23;1638377;86;22157;-73
2021/07/14 08:59:09;;;;;;;9.85;9.05;;;;;;;30.60;44.44;99868.06;1635166;87;21033;-75
2021/07/14 09:01:36;;;;;;;7.40;6.80;;;;;;;30.62;44.78;99869.88;1653263;86;21085;-75
2021/07/14 09:04:03;;;;;;;10.00;8.98;;;;;;;30.74;44.21;99863.28;1642504;86;21076;-75
2021/07/14 09:06:31;;;;;;;10.82;9.43;;;;;;;30.79;43.74;99861.55;1634984;87;21120;-75
2021/07/14 09:08:57;;;;;;;9.65;8.80;;;;;;;30.83;44.04;99867.93;1636702;86;21232;-74
2021/07/14 09:11:24;;;;;;;15.35;9.65;;;;;;;30.93;43.98;99855.33;1639587;86;21048;-76
2021/07/14 09:13:50;;;;;;;13.85;8.98;;;;;;;31.01;43.77;99867.54;1625998;87;21044;-75
2021/07/14 09:16:35;;;;;;;9.93;8.58;;;;;;;31.07;43.42;99864.63;1634962;87;21071;-74
2021/07/14 09:19:13;;;;;;;11.90;10.70;;;;;;;31.11;43.34;99856.31;1625448;86;21034;-75
2021/07/14 09:21:43;;;;;;;10.50;9.50;;;;;;;31.11;43.23;99856.31;1662087;85;21284;-75
2021/07/14 09:24:29;;;;;;;9.20;8.48;;;;;;;31.15;43.55;99855.16;1623690;87;21530;-75
2021/07/14 09:26:56;;;;;;;11.50;8.08;;;;;;;31.24;43.20;99854.83;1616132;87;21072;-75
2021/07/14 09:29:23;;;;;;;7.80;7.12;;;;;;;31.35;43.37;99854.33;1637984;86;21021;-74
2021/07/14 09:31:50;;;;;;;12.45;9.88;;;;;;;31.46;43.28;99846.08;1617858;87;21791;-75
2021/07/14 09:34:31;;;;;;;9.18;8.38;;;;;;;31.53;42.68;99851.67;1634888;86;21749;-75
2021/07/14 09:37:04;;;;;;;9.70;8.88;;;;;;;31.62;42.64;99854.94;1636154;86;21037;-75
2021/07/14 09:39:38;;;;;;;11.57;7.95;;;;;;;31.71;42.54;99851.81;1644585;86;21136;-76
2021/07/14 09:42:09;;;;;;;10.90;9.13;;;;;;;31.83;41.93;99851.51;1627625;86;21092;-70
2021/07/14 09:44:46;;;;;;;13.48;10.75;;;;;;;31.89;41.38;99850.76;1628566;87;21108;-76
2021/07/14 09:47:18;;;;;;;9.58;8.75;;;;;;;31.91;41.28;99854.52;1623044;86;20966;-77
2021/07/14 09:49:48;;;;;;;11.50;9.80;;;;;;;31.97;41.39;99851.58;1651513;86;21072;-76
2021/07/14 09:52:21;;;;;;;11.30;9.78;;;;;;;31.99;41.41;99844.42;1642299;86;20984;-76
2021/07/14 09:54:49;;;;;;;11.97;9.13;;;;;;;32.04;40.77;99844.05;1661738;86;20982;-77
2021/07/14 09:57:17;;;;;;;15.48;10.95;;;;;;;32.09;40.84;99847.05;1625528;87;21038;-75
2021/07/14 09:59:44;;;;;;;13.70;11.75;;;;;;;32.06;40.62;99846.45;1633923;86;21079;-75
2021/07/14 10:02:16;;;;;;;11.10;9.30;;;;;;;31.99;40.09;99849.99;1634776;87;20922;-80
2021/07/14 10:04:44;;;;;;;10.55;9.28;;;;;;;31.94;40.31;99849.59;1634973;87;21053;-74
2021/07/14 10:07:26;;;;;;;13.93;10.90;;;;;;;31.96;41.02;99848.00;1634988;86;20965;-75
2021/07/14 10:09:51;;;;;;;11.53;10.45;;;;;;;32.01;41.48;99838.48;1565365;91;21086;-74
2021/07/14 10:12:27;;;;;;;12.50;10.53;;;;;;;32.16;41.56;99836.59;1636665;86;21141;-76
2021/07/14 10:15:00;;;;;;;10.53;9.53;;;;;;;32.36;41.30;99842.04;1649883;86;21025;-70
2021/07/14 10:17:42;;;;;;;11.30;9.95;;;;;;;32.50;40.80;99849.64;1641406;86;21605;-71
2021/07/14 10:20:35;;;;;;;12.75;11.43;;;;;;;32.50;39.96;99852.42;1635093;86;21566;-72
2021/07/14 10:23:11;;;;;;;13.08;11.90;;;;;;;32.49;39.96;99845.25;1634760;87;21540;-74
2021/07/14 10:25:41;;;;;;;11.57;8.90;;;;;;;32.56;39.62;99843.89;1655583;86;21538;-73
2021/07/14 10:28:09;;;;;;;13.40;11.80;;;;;;;32.60;39.73;99837.14;1661896;86;20966;-74
2021/07/14 10:30:39;;;;;;;12.30;8.83;;;;;;;32.68;39.93;99836.58;1649399;86;21108;-74
2021/07/14 10:33:05;;;;;;;15.45;12.07;;;;;;;32.81;39.56;99837.19;1635083;86;21108;-71
2021/07/14 10:35:40;;;;;;;11.50;10.40;;;;;;;32.96;39.40;99842.78;1634889;87;21085;-76
2021/07/14 10:38:17;;;;;;;10.53;9.65;;;;;;;33.07;39.27;99841.61;1636150;86;21090;-78
2021/07/14 10:40:49;;;;;;;10.20;9.23;;;;;;;33.14;39.18;99836.64;1639192;86;20977;-77
2021/07/14 10:43:21;;;;;;;9.75;8.85;;;;;;;33.25;39.92;99836.85;1635235;86;21052;-75
2021/07/14 10:45:50;;;;;;;11.90;10.63;;;;;;;33.44;39.40;99832.84;1594860;90;20978;-78
2021/07/14 10:48:20;;;;;;;11.22;10.23;;;;;;;33.56;38.61;99835.23;1638733;86;21041;-79
2021/07/14 10:50:49;;;;;;;14.63;9.93;;;;;;;33.61;38.72;99826.47;1644125;86;21528;-76
2021/07/14 10:53:21;;;;;;;10.08;9.28;;;;;;;33.67;39.02;99829.05;1615823;87;20965;-77
2021/07/14 10:55:49;;;;;;;11.78;10.53;;;;;;;33.73;37.75;99825.25;1614565;87;21060;-70
2021/07/14 10:58:20;;;;;;;10.90;9.90;;;;;;;33.71;37.90;99832.66;1637551;86;21053;-72
2021/07/14 11:00:47;;;;;;;10.00;9.18;;;;;;;33.79;38.23;99824.25;1634336;86;21036;-76
2021/07/14 11:03:38;;;;;;;10.60;9.70;;;;;;;33.93;38.29;99826.39;1631170;86;21739;-72
2021/07/14 11:06:06;;;;;;;11.48;9.95;;;;;;;33.99;38.21;99822.59;1659832;86;20993;-74
2021/07/14 11:08:48;;;;;;;11.12;8.73;;;;;;;33.99;38.61;99823.98;1655303;85;21033;-71
2021/07/14 11:11:18;;;;;;;11.40;10.10;;;;;;;34.03;37.38;99826.16;1661187;86;20914;-71
2021/07/14 11:13:48;;;;;;;9.63;8.05;;;;;;;33.87;38.22;99827.20;1659352;86;21072;-75
2021/07/14 11:16:29;;;;;;;10.15;9.23;;;;;;;33.83;38.09;99838.38;1651626;86;20934;-73
2021/07/14 11:19:10;;;;;;;7.80;7.17;;;;;;;33.69;37.90;99830.05;1608834;89;21056;-73
2021/07/14 11:22:02;;;;;;;9.13;8.33;;;;;;;33.63;37.95;99833.81;1590586;89;21116;-73
2021/07/14 11:24:48;;;;;;;22.15;9.23;;;;;;;33.58;38.33;99823.06;1559952;90;21082;-74
2021/07/14 11:27:33;;;;;;;17.95;9.70;;;;;;;33.68;37.66;99827.86;1600623;87;35542;-72
2021/07/14 11:30:07;;;;;;;12.78;9.60;;;;;;;33.82;37.57;99824.23;1580283;88;21756;-75
2021/07/14 11:32:43;;;;;;;12.03;9.88;;;;;;;34.01;37.54;99822.37;1628559;86;21027;-72
2021/07/14 11:35:26;;;;;;;10.90;9.90;;;;;;;34.14;37.62;99829.12;1624917;86;21032;-71
2021/07/14 11:37:56;;;;;;;10.23;9.48;;;;;;;34.23;36.81;99820.33;1651545;86;21008;-71